createdAt,value
2023-04-25T00:01:50.551Z,100039.41
2023-04-25T00:04:20.575Z,100050.84
2023-04-25T00:06:50.441Z,100040.25
2023-04-25T00:09:20.158Z,100043.78
2023-04-25T00:11:52.468Z,100047.28
2023-04-25T00:14:22.232Z,100049.88
2023-04-25T00:16:52.973Z,100048.09
2023-04-25T00:19:22.669Z,100043.66
2023-04-25T00:21:52.362Z,100048.13
2023-04-25T00:24:22.109Z,100049.75
2023-04-25T00:26:54.431Z,100050.59
2023-04-25T00:29:24.178Z,100048.78
2023-04-25T00:31:53.925Z,100044.38
2023-04-25T00:34:23.676Z,100043.47
2023-04-25T00:36:53.503Z,100047.78
2023-04-25T00:39:23.346Z,100049.53
2023-04-25T00:41:57.247Z,100050.28
2023-04-25T00:44:28.226Z,100047.66
2023-04-25T00:46:58.044Z,100048.44
2023-04-25T00:49:27.837Z,100049.31
2023-04-25T00:51:57.644Z,100050.16
2023-04-25T00:54:27.392Z,100045.81
2023-04-25T00:56:59.666Z,100046.69
2023-04-25T00:59:30.781Z,100052.84
2023-04-25T01:02:00.928Z,100045.81
2023-04-25T01:04:31.407Z,100044.91
2023-04-25T01:07:03.891Z,100048.41
2023-04-25T01:09:34.668Z,100050.06
2023-04-25T01:12:07.360Z,100046.66
2023-04-25T01:14:37.482Z,100050.06
2023-04-25T01:17:10.096Z,100050.13
2023-04-25T01:19:39.864Z,100053.59
2023-04-25T01:22:13.743Z,100055.44
2023-04-25T01:24:43.941Z,100044.19
2023-04-25T01:27:14.841Z,100048.44
2023-04-25T01:29:44.606Z,100052.94
2023-04-25T01:32:14.730Z,100052.91
2023-04-25T01:34:45.783Z,100056.47
2023-04-25T01:37:18.199Z,100049.47
2023-04-25T01:39:49.846Z,100065.19
2023-04-25T01:42:19.599Z,100056.47
2023-04-25T01:44:49.290Z,100065.28
2023-04-25T01:47:18.956Z,100067.03
2023-04-25T01:49:49.135Z,100078.22
2023-04-25T01:52:21.550Z,100070.38
2023-04-25T01:54:51.825Z,100073.00
2023-04-25T01:57:21.700Z,100074.75
2023-04-25T01:59:52.209Z,100079.88
2023-04-25T02:02:42.186Z,100078.09
2023-04-25T02:05:22.955Z,100085.88
2023-04-25T02:07:55.364Z,100082.34
2023-04-25T02:10:28.408Z,100091.13
2023-04-25T02:13:18.691Z,100088.44
2023-04-25T02:16:09.417Z,100092.78
2023-04-25T02:18:41.891Z,100089.31
2023-04-25T02:21:12.601Z,100098.94
2023-04-25T02:23:46.732Z,100095.44
2023-04-25T02:26:17.071Z,100092.84
2023-04-25T02:28:46.789Z,100098.94
2023-04-25T02:31:16.571Z,100099.84
2023-04-25T02:33:46.842Z,100099.72
2023-04-25T02:36:16.525Z,100093.69
2023-04-25T02:38:48.841Z,100098.06
2023-04-25T02:41:18.958Z,100102.41
2023-04-25T02:43:49.066Z,100099.84
2023-04-25T02:46:32.214Z,100099.91
2023-04-25T02:49:09.380Z,100102.47
2023-04-25T02:51:39.465Z,100104.22
2023-04-25T02:54:11.866Z,100101.59
2023-04-25T02:56:45.669Z,100101.53
2023-04-25T02:59:20.551Z,100095.50
2023-04-25T03:01:50.929Z,100101.66
2023-04-25T03:04:20.668Z,100097.31
2023-04-25T03:06:51.581Z,100106.06
2023-04-25T03:09:26.641Z,100104.31
2023-04-25T03:11:56.409Z,100105.16
2023-04-25T03:14:26.656Z,100107.03
2023-04-25T03:16:56.647Z,100114.03
2023-04-25T03:19:26.462Z,100116.66
2023-04-25T03:21:56.160Z,100118.44
2023-04-25T03:24:29.345Z,100130.63
2023-04-25T03:26:59.091Z,100124.47
2023-04-25T03:29:29.861Z,100131.41
2023-04-25T03:32:00.773Z,100130.56
2023-04-25T03:34:30.673Z,100134.94
2023-04-25T03:37:01.089Z,100138.47
2023-04-25T03:39:34.318Z,100141.22
2023-04-25T03:42:04.051Z,100146.47
2023-04-25T03:44:34.414Z,100148.34
2023-04-25T03:47:04.678Z,100145.72
2023-04-25T03:49:34.926Z,100150.13
2023-04-25T03:52:06.678Z,100146.59
2023-04-25T03:54:42.725Z,100151.81
2023-04-25T03:57:16.509Z,100145.66
2023-04-25T03:59:46.902Z,100147.50
2023-04-25T04:02:18.473Z,100148.41
2023-04-25T04:04:49.216Z,100149.34
2023-04-25T04:07:19.795Z,100150.22
2023-04-25T04:09:53.998Z,100152.78
2023-04-25T04:12:30.384Z,100159.81
2023-04-25T04:15:00.117Z,100160.66
2023-04-25T04:17:29.943Z,100159.81
2023-04-25T04:20:00.613Z,100170.28
2023-04-25T04:22:34.112Z,100171.25
2023-04-25T04:25:13.877Z,100169.50
2023-04-25T04:28:02.041Z,100180.06
2023-04-25T04:30:53.660Z,100177.75
2023-04-25T04:33:24.625Z,100171.88
2023-04-25T04:36:00.286Z,100177.19
2023-04-25T04:38:31.258Z,100171.88
2023-04-25T04:41:07.300Z,100179.72
2023-04-25T04:43:52.011Z,100177.00
2023-04-25T04:46:43.553Z,100183.06
2023-04-25T04:49:32.077Z,100188.22
2023-04-25T04:52:31.044Z,100193.50
2023-04-25T04:55:25.704Z,100206.59
2023-04-25T04:58:10.201Z,100203.06
2023-04-25T05:00:52.402Z,100197.94
2023-04-25T05:04:01.864Z,100202.31
2023-04-25T05:06:55.428Z,100207.53
2023-04-25T05:09:44.208Z,100207.53
2023-04-25T05:12:14.265Z,100212.78
2023-04-25T05:14:55.319Z,100219.69
2023-04-25T05:17:34.309Z,100217.81
2023-04-25T05:20:22.736Z,100223.88
2023-04-25T05:23:28.953Z,100235.13
2023-04-25T05:26:35.348Z,100234.22
2023-04-25T05:29:31.295Z,100242.00
2023-04-25T05:32:22.602Z,100243.66
2023-04-25T05:34:53.576Z,100241.00
2023-04-25T05:37:28.320Z,100247.06
2023-04-25T05:40:01.782Z,100248.84
2023-04-25T05:42:50.344Z,100242.75
2023-04-25T05:45:32.766Z,100249.63
2023-04-25T05:48:15.956Z,100252.19
2023-04-25T05:50:56.961Z,100251.22
2023-04-25T05:53:45.132Z,100252.00
2023-04-25T05:56:16.718Z,100255.44
2023-04-25T05:58:46.720Z,100262.31
2023-04-25T06:01:17.028Z,100262.19
2023-04-25T06:03:51.053Z,100269.94
2023-04-25T06:06:21.462Z,100262.94
2023-04-25T06:08:51.510Z,100266.41
2023-04-25T06:11:21.362Z,100268.91
2023-04-25T06:13:51.276Z,100260.91
2023-04-25T06:16:21.277Z,100262.56
2023-04-25T06:18:53.736Z,100262.38
2023-04-25T06:21:23.529Z,100263.03
2023-04-25T06:23:54.763Z,100262.97
2023-04-25T06:26:27.102Z,100259.28
2023-04-25T06:28:56.830Z,100261.97
2023-04-25T06:31:27.009Z,100262.06
2023-04-25T06:34:01.232Z,100270.97
2023-04-25T06:36:33.935Z,100263.03
2023-04-25T06:39:10.111Z,100268.28
2023-04-25T06:41:39.819Z,100272.63
2023-04-25T06:44:11.593Z,100274.38
2023-04-25T06:46:53.016Z,100268.16
2023-04-25T06:49:25.796Z,100274.13
2023-04-25T06:51:55.626Z,100274.06
2023-04-25T06:54:25.987Z,100279.00
2023-04-25T06:57:04.250Z,100270.78
2023-04-25T06:59:35.340Z,100267.94
2023-04-25T07:02:07.058Z,100276.66
2023-04-25T07:04:39.827Z,100281.06
2023-04-25T07:07:09.817Z,100274.97
2023-04-25T07:09:49.435Z,100283.03
2023-04-25T07:12:19.304Z,100285.00
2023-04-25T07:14:49.206Z,100279.72
2023-04-25T07:17:19.255Z,100278.88
2023-04-25T07:19:52.746Z,100288.72
2023-04-25T07:22:22.574Z,100299.19
2023-04-25T07:24:54.297Z,100301.03
2023-04-25T07:27:27.968Z,100292.31
2023-04-25T07:30:19.330Z,100298.31
2023-04-25T07:32:49.318Z,100300.69
2023-04-25T07:35:21.756Z,100302.19
2023-04-25T07:37:52.358Z,100306.28
2023-04-25T07:40:23.709Z,100305.16
2023-04-25T07:42:58.502Z,100300.56
2023-04-25T07:45:36.216Z,100305.75
2023-04-25T07:48:07.189Z,100303.88
2023-04-25T07:50:42.722Z,100308.00
2023-04-25T07:53:12.529Z,100311.22
2023-04-25T07:55:49.630Z,100319.75
2023-04-25T07:58:22.599Z,100324.13
2023-04-25T08:00:57.024Z,100324.53
2023-04-25T08:03:55.938Z,100333.38
2023-04-25T08:06:36.279Z,100329.28
2023-04-25T08:09:12.040Z,100321.53
2023-04-25T08:11:43.921Z,100331.09
2023-04-25T08:14:16.108Z,100344.53
2023-04-25T08:16:47.406Z,100340.41
2023-04-25T08:19:17.241Z,100341.69
2023-04-25T08:21:53.008Z,100347.88
2023-04-25T08:24:29.969Z,100353.75
2023-04-25T08:27:00.180Z,100359.63
2023-04-25T08:29:31.933Z,100356.78
2023-04-25T08:32:01.965Z,100357.25
2023-04-25T08:34:33.091Z,100354.31
2023-04-25T08:37:09.396Z,100352.38
2023-04-25T08:39:44.180Z,100359.66
2023-04-25T08:42:41.426Z,100358.47
2023-04-25T08:45:12.611Z,100359.00
2023-04-25T08:47:45.163Z,100368.16
2023-04-25T08:50:14.949Z,100366.19
2023-04-25T08:52:49.294Z,100365.59
2023-04-25T08:55:19.756Z,100367.53
2023-04-25T08:57:49.808Z,100379.53
2023-04-25T09:00:21.014Z,100384.06
2023-04-25T09:02:51.295Z,100389.63
2023-04-25T09:05:21.929Z,100402.50
2023-04-25T09:07:59.300Z,100404.28
2023-04-25T09:10:29.221Z,100397.25
2023-04-25T09:13:09.952Z,100402.13
2023-04-25T09:15:59.703Z,100410.63
2023-04-25T09:18:49.128Z,100406.78
2023-04-25T09:21:19.653Z,100411.59
2023-04-25T09:23:53.818Z,100403.59
2023-04-25T09:26:25.344Z,100407.72
2023-04-25T09:29:08.865Z,100412.00
2023-04-25T09:31:42.380Z,100405.75
2023-04-25T09:34:16.803Z,100412.59
2023-04-25T09:36:51.771Z,100414.03
2023-04-25T09:39:48.558Z,100418.06
2023-04-25T09:42:20.739Z,100416.28
2023-04-25T09:44:50.996Z,100429.31
2023-04-25T09:47:22.807Z,100427.66
2023-04-25T09:49:53.278Z,100429.66
2023-04-25T09:52:26.068Z,100428.06
2023-04-25T09:58:49.038Z,100430.66
2023-04-25T10:01:21.115Z,100435.41
2023-04-25T10:04:05.381Z,100439.75
2023-04-25T10:07:03.089Z,100437.88
2023-04-25T10:09:34.962Z,100438.38
2023-04-25T10:12:04.687Z,100451.38
2023-04-25T10:14:37.697Z,100445.38
2023-04-25T10:17:08.040Z,100446.88
2023-04-25T10:19:37.887Z,100445.31
2023-04-25T10:22:11.951Z,100434.41
2023-04-25T10:24:42.714Z,100441.44
2023-04-25T10:27:12.573Z,100442.88
2023-04-25T10:29:45.890Z,100447.78
2023-04-25T10:32:15.883Z,100457.06
2023-04-25T10:34:48.238Z,100458.22
2023-04-25T10:37:18.260Z,100460.28
2023-04-25T10:39:48.152Z,100467.06
2023-04-25T10:42:18.669Z,100465.03
2023-04-25T10:45:05.324Z,100456.19
2023-04-25T10:47:39.598Z,100458.63
2023-04-25T10:50:10.347Z,100468.31
2023-04-25T10:52:42.742Z,100456.34
2023-04-25T10:55:12.774Z,100458.06
2023-04-25T10:57:45.095Z,100457.44
2023-04-25T11:00:20.171Z,100455.41
2023-04-25T11:02:52.052Z,100458.25
2023-04-25T11:05:26.007Z,100458.50
2023-04-25T11:10:31.946Z,100483.94
2023-04-25T11:13:02.400Z,100490.47
2023-04-25T11:15:34.852Z,100486.25
2023-04-25T11:18:04.876Z,100494.28
2023-04-25T11:20:34.543Z,100485.50
2023-04-25T11:25:35.401Z,100497.91
2023-04-25T11:28:06.502Z,100499.16
2023-04-25T11:30:38.803Z,100502.63
2023-04-25T11:33:08.573Z,100499.25
2023-04-25T11:35:38.244Z,100505.41
2023-04-25T11:38:08.207Z,100509.63
2023-04-25T11:44:02.330Z,100507.13
2023-04-25T11:46:35.770Z,100503.38
2023-04-25T11:49:06.084Z,100505.69
2023-04-25T11:51:42.350Z,100498.16
2023-04-25T11:54:12.951Z,100506.22
2023-04-25T11:56:45.355Z,100498.69
2023-04-25T11:59:15.292Z,100493.44
2023-04-25T12:01:52.808Z,100493.59
2023-04-25T12:04:24.501Z,100493.72
2023-04-25T12:06:59.153Z,100495.22
2023-04-25T12:09:33.624Z,100503.38
2023-04-25T12:12:07.046Z,100495.97
2023-04-25T12:14:39.763Z,100501.78
2023-04-25T12:17:12.868Z,100504.84
2023-04-25T12:19:45.404Z,100507.72
2023-04-25T12:22:25.850Z,100517.66
2023-04-25T12:24:57.823Z,100522.97
2023-04-25T12:27:29.822Z,100517.16
2023-04-25T12:30:00.410Z,100517.97
2023-04-25T12:32:32.739Z,100535.03
2023-04-25T12:35:02.583Z,100538.59
2023-04-25T12:37:32.627Z,100532.94
2023-04-25T12:40:02.331Z,100538.81
2023-04-25T12:42:32.055Z,100536.34
2023-04-25T12:45:01.697Z,100539.72
2023-04-25T12:47:36.461Z,100530.53
2023-04-25T12:50:06.284Z,100535.03
2023-04-25T12:52:36.000Z,100537.00
2023-04-25T12:55:06.905Z,100536.03
2023-04-25T12:57:36.564Z,100537.06
2023-04-25T13:00:10.145Z,100530.16
2023-04-25T13:02:43.038Z,100520.31
2023-04-25T13:05:13.154Z,100513.00
2023-04-25T13:07:42.882Z,100524.28
2023-04-25T13:10:12.622Z,100512.63
2023-04-25T13:12:42.295Z,100520.09
2023-04-25T13:15:13.695Z,100522.47
2023-04-25T13:17:46.805Z,100515.06
2023-04-25T13:20:16.925Z,100518.88
2023-04-25T13:22:46.912Z,100517.09
2023-04-25T13:25:17.581Z,100523.06
2023-04-25T13:27:47.625Z,100527.19
2023-04-25T13:30:17.568Z,100536.97
2023-04-25T13:32:49.898Z,100538.94
2023-04-25T13:35:21.455Z,100550.34
2023-04-25T13:37:51.134Z,100560.47
2023-04-25T13:40:22.318Z,100562.78
2023-04-25T13:42:53.894Z,100574.91
2023-04-25T13:45:24.126Z,100579.09
2023-04-25T13:47:56.562Z,100569.47
2023-04-25T13:50:26.916Z,100564.13
2023-04-25T13:52:56.688Z,100566.22
2023-04-25T13:55:26.585Z,100557.97
2023-04-25T13:57:56.410Z,100562.59
2023-04-25T14:00:26.337Z,100557.59
2023-04-25T14:02:58.711Z,100554.88
2023-04-25T14:05:28.504Z,100553.41
2023-04-25T14:07:59.616Z,100548.50
2023-04-25T14:10:30.163Z,100543.09
2023-04-25T14:12:59.931Z,100542.81
2023-04-25T14:15:29.596Z,100538.09
2023-04-25T14:18:02.132Z,100536.75
2023-04-25T14:20:32.371Z,100544.59
2023-04-25T14:23:02.142Z,100541.78
2023-04-25T14:25:31.967Z,100533.59
2023-04-25T14:28:02.094Z,100527.25
2023-04-25T14:30:31.849Z,100528.22
2023-04-25T14:33:04.193Z,100527.66
2023-04-25T14:35:34.027Z,100538.22
2023-04-25T14:38:03.688Z,100531.47
2023-04-25T14:40:33.454Z,100543.75
2023-04-25T14:43:03.181Z,100533.78
2023-04-25T14:45:32.887Z,100537.47
2023-04-25T14:48:05.757Z,100538.31
2023-04-25T14:50:35.787Z,100531.41
2023-04-25T14:53:05.564Z,100527.84
2023-04-25T14:55:36.129Z,100536.47
2023-04-25T14:58:06.004Z,100533.91
2023-04-25T15:00:35.767Z,100531.41
2023-04-25T15:03:08.802Z,100537.31
2023-04-25T15:05:38.645Z,100539.88
2023-04-25T15:08:08.813Z,100536.63
2023-04-25T15:10:38.509Z,100533.25
2023-04-25T15:13:08.666Z,100537.94
2023-04-25T15:15:38.325Z,100548.22
2023-04-25T15:18:11.257Z,100549.88
2023-04-25T15:20:41.355Z,100550.13
2023-04-25T15:23:11.448Z,100554.19
2023-04-25T15:25:41.208Z,100551.16
2023-04-25T15:28:10.918Z,100556.50
2023-04-25T15:30:40.935Z,100562.69
2023-04-25T15:33:13.241Z,100559.03
2023-04-25T15:35:43.323Z,100567.59
2023-04-25T15:38:13.963Z,100567.75
2023-04-25T15:40:44.170Z,100565.25
2023-04-25T15:43:16.356Z,100574.69
2023-04-25T15:45:46.755Z,100562.47
2023-04-25T15:48:19.036Z,100580.91
2023-04-25T15:50:48.841Z,100574.34
2023-04-25T15:53:18.521Z,100576.53
2023-04-25T15:55:48.523Z,100578.25
2023-04-25T15:58:18.246Z,100573.13
2023-04-25T16:00:49.097Z,100569.56
2023-04-25T16:03:22.293Z,100563.44
2023-04-25T16:05:52.951Z,100561.50
2023-04-25T16:08:22.648Z,100564.59
2023-04-25T16:10:52.883Z,100571.91
2023-04-25T16:13:22.858Z,100567.22
2023-04-25T16:15:52.614Z,100572.50
2023-04-25T16:18:25.098Z,100562.34
2023-04-25T16:20:54.937Z,100568.91
2023-04-25T16:23:26.826Z,100571.56
2023-04-25T16:25:56.882Z,100571.00
2023-04-25T16:28:26.575Z,100588.66
2023-04-25T16:30:56.305Z,100581.69
2023-04-25T16:33:28.721Z,100585.53
2023-04-25T16:35:58.867Z,100583.69
2023-04-25T16:38:28.630Z,100584.47
2023-04-25T16:40:58.391Z,100583.63
2023-04-25T16:43:28.134Z,100588.91
2023-04-25T16:45:57.809Z,100594.88
2023-04-25T16:48:30.051Z,100592.38
2023-04-25T16:50:59.744Z,100596.22
2023-04-25T16:53:29.764Z,100599.78
2023-04-25T16:55:59.502Z,100600.13
2023-04-25T16:58:29.393Z,100597.16
2023-04-25T17:00:59.109Z,100601.81
2023-04-25T17:03:34.741Z,100603.97
2023-04-25T17:06:05.469Z,100602.47
2023-04-25T17:08:35.171Z,100615.91
2023-04-25T17:11:04.930Z,100605.63
2023-04-25T17:13:35.060Z,100620.66
2023-04-25T17:16:04.904Z,100612.69
2023-04-25T17:18:37.932Z,100621.66
2023-04-25T17:21:08.987Z,100628.75
2023-04-25T17:23:44.878Z,100617.28
2023-04-25T17:26:15.147Z,100627.03
2023-04-25T17:28:49.446Z,100625.16
2023-04-25T17:31:19.709Z,100623.69
2023-04-25T17:33:52.370Z,100630.56
2023-04-25T17:36:22.656Z,100630.50
2023-04-25T17:38:52.536Z,100637.59
2023-04-25T17:41:22.361Z,100626.47
2023-04-25T17:43:52.174Z,100627.31
2023-04-25T17:46:21.926Z,100634.78
2023-04-25T17:48:54.629Z,100634.66
2023-04-25T17:51:24.646Z,100642.81
2023-04-25T17:53:54.361Z,100652.06
2023-04-25T17:56:26.974Z,100654.59
2023-04-25T17:58:57.411Z,100653.81
2023-04-25T18:01:27.179Z,100656.34
2023-04-25T18:03:59.928Z,100656.63
2023-04-25T18:06:32.847Z,100655.22
2023-04-25T18:09:02.724Z,100656.50
2023-04-25T18:11:32.852Z,100661.34
2023-04-25T18:14:02.529Z,100665.66
2023-04-25T18:16:32.391Z,100677.28
2023-04-25T18:19:05.807Z,100673.53
2023-04-25T18:21:36.410Z,100670.13
2023-04-25T18:24:06.584Z,100683.38
2023-04-25T18:26:36.356Z,100690.00
2023-04-25T18:29:07.590Z,100691.50
2023-04-25T18:31:37.581Z,100699.09
2023-04-25T18:34:10.292Z,100703.03
2023-04-25T18:36:40.529Z,100706.03
2023-04-25T18:39:21.972Z,100714.38
2023-04-25T18:41:59.260Z,100719.16
2023-04-25T18:44:32.363Z,100723.19
2023-04-25T18:47:02.091Z,100726.19
2023-04-25T18:49:34.403Z,100725.69
2023-04-25T18:52:04.136Z,100726.03
2023-04-25T18:54:34.453Z,100725.38
2023-04-25T18:57:04.064Z,100730.84
2023-04-25T18:59:33.770Z,100735.69
2023-04-25T19:02:05.445Z,100733.28
2023-04-25T19:04:38.279Z,100741.38
2023-04-25T19:07:08.146Z,100742.47
2023-04-25T19:09:37.811Z,100750.59
2023-04-25T19:12:07.923Z,100754.22
2023-04-25T19:14:37.805Z,100759.63
2023-04-25T19:17:07.607Z,100757.22
2023-04-25T19:19:40.357Z,100765.31
2023-04-25T19:22:10.897Z,100761.22
2023-04-25T19:24:40.701Z,100757.75
2023-04-25T19:27:10.377Z,100764.97
2023-04-25T19:29:44.449Z,100772.13
2023-04-25T19:32:14.254Z,100768.06
2023-04-25T19:34:46.574Z,100765.44
2023-04-25T19:37:17.116Z,100771.72
2023-04-25T19:39:48.052Z,100771.16
2023-04-25T19:42:19.298Z,100781.78
2023-04-25T19:44:49.025Z,100773.25
2023-04-25T19:47:18.665Z,100775.09
2023-04-25T19:49:50.987Z,100774.34
2023-04-25T19:52:20.912Z,100779.72
2023-04-25T19:54:50.768Z,100779.94
2023-04-25T19:57:20.469Z,100782.72
2023-04-25T19:59:50.120Z,100784.66
2023-04-25T20:02:21.516Z,100778.59
2023-04-25T20:04:54.056Z,100792.69
2023-04-25T20:07:24.640Z,100797.19
2023-04-25T20:09:54.264Z,100798.09
2023-04-25T20:12:23.917Z,100801.72
2023-04-25T20:14:53.695Z,100797.50
2023-04-25T20:17:23.527Z,100802.84
2023-04-25T20:19:56.589Z,100802.19
2023-04-25T20:22:28.633Z,100808.44
2023-04-25T20:24:58.478Z,100811.16
2023-04-25T20:27:28.272Z,100813.81
2023-04-25T20:29:57.984Z,100806.94
2023-04-25T20:32:27.927Z,100810.47
2023-04-25T20:35:00.420Z,100817.53
2023-04-25T20:37:31.603Z,100809.78
2023-04-25T20:40:02.006Z,100816.81
2023-04-25T20:42:32.160Z,100813.47
2023-04-25T20:45:01.809Z,100814.41
2023-04-25T20:47:31.588Z,100816.28
2023-04-25T20:50:04.173Z,100825.13
2023-04-25T20:52:34.267Z,100821.75
2023-04-25T20:55:04.098Z,100828.88
2023-04-25T20:57:33.976Z,100822.19
2023-04-25T21:00:05.491Z,100821.44
2023-04-25T21:02:35.482Z,100820.72
2023-04-25T21:05:08.570Z,100827.00
2023-04-25T21:07:38.360Z,100830.63
2023-04-25T21:10:08.674Z,100823.75
2023-04-25T21:12:38.445Z,100825.63
2023-04-25T21:15:09.117Z,100827.47
2023-04-25T21:17:38.947Z,100827.59
2023-04-25T21:20:13.747Z,100829.44
2023-04-25T21:22:51.022Z,100829.53
2023-04-25T21:25:24.610Z,100833.97
2023-04-25T21:27:55.613Z,100824.53
2023-04-25T21:30:26.568Z,100828.97
2023-04-25T21:32:56.925Z,100845.72
2023-04-25T21:35:29.378Z,100841.50
2023-04-25T21:37:59.260Z,100850.34
2023-04-25T21:40:29.293Z,100843.47
2023-04-25T21:42:59.043Z,100841.84
2023-04-25T21:45:29.308Z,100841.13
2023-04-25T21:47:59.122Z,100855.19
2023-04-25T21:50:31.663Z,100849.19
2023-04-25T21:53:01.413Z,100856.25
2023-04-25T21:55:31.736Z,100859.84
2023-04-25T21:58:01.623Z,100862.56
2023-04-25T22:00:32.288Z,100861.78
2023-04-25T22:03:02.519Z,100860.09
2023-04-25T22:05:35.138Z,100859.28
2023-04-25T22:08:04.791Z,100856.75
2023-04-25T22:10:34.803Z,100865.56
2023-04-25T22:13:05.710Z,100869.16
2023-04-25T22:15:35.738Z,100866.59
2023-04-25T22:18:05.785Z,100871.03
2023-04-25T22:20:38.946Z,100878.88
2023-04-25T22:23:08.918Z,100870.19
2023-04-25T22:25:38.666Z,100874.63
2023-04-25T22:28:08.507Z,100877.25
2023-04-25T22:30:38.295Z,100883.38
2023-04-25T22:33:08.052Z,100890.44
2023-04-25T22:35:40.444Z,100886.97
2023-04-25T22:38:10.657Z,100882.63
2023-04-25T22:40:40.480Z,100890.53
2023-04-25T22:43:10.693Z,100896.59
2023-04-25T22:45:42.271Z,100904.44
2023-04-25T22:48:12.073Z,100907.91
2023-04-25T22:50:45.627Z,100907.00
2023-04-25T22:53:15.273Z,100908.75
2023-04-25T22:55:44.936Z,100912.22
2023-04-25T22:58:14.821Z,100904.44
2023-04-25T23:00:44.543Z,100907.97
2023-04-25T23:03:14.312Z,100909.72
2023-04-25T23:05:46.720Z,100908.06
2023-04-25T23:08:17.574Z,100911.59
2023-04-25T23:10:47.928Z,100913.41
2023-04-25T23:13:18.371Z,100911.63
2023-04-25T23:15:48.046Z,100911.69
2023-04-25T23:18:17.877Z,100912.59
2023-04-25T23:20:50.236Z,100909.16
2023-04-25T23:23:19.958Z,100916.19
2023-04-25T23:25:49.661Z,100909.25
2023-04-25T23:28:19.497Z,100915.38
2023-04-25T23:30:49.288Z,100918.97
2023-04-25T23:33:18.966Z,100919.81
2023-04-25T23:35:51.241Z,100928.59
2023-04-25T23:38:21.012Z,100925.13
2023-04-25T23:40:50.731Z,100913.84
2023-04-25T23:43:20.487Z,100920.88
2023-04-25T23:45:50.224Z,100930.47
2023-04-25T23:48:19.884Z,100923.53
2023-04-25T23:50:52.151Z,100926.19
2023-04-25T23:53:22.006Z,100931.44
2023-04-25T23:55:51.779Z,100934.13
2023-04-25T23:58:21.475Z,100930.66
